sensor_id;sensor_type;location;lat;lon;timestamp;P1;durP1;ratioP1;P2;durP2;ratioP2
36995;SDS011;22905;50.340;10.776;2023-10-09T00:04:58;6.00;;;5.10;;
36995;SDS011;22905;50.340;10.776;2023-10-09T00:10:02;8.35;;;5.68;;
36995;SDS011;22905;50.340;10.776;2023-10-09T00:15:11;8.27;;;4.60;;
36995;SDS011;22905;50.340;10.776;2023-10-09T00:20:12;7.40;;;4.60;;
36995;SDS011;22905;50.340;10.776;2023-10-09T00:25:18;6.70;;;4.85;;
36995;SDS011;22905;50.340;10.776;2023-10-09T00:30:24;6.82;;;4.85;;
36995;SDS011;22905;50.340;10.776;2023-10-09T00:35:29;5.88;;;4.65;;
36995;SDS011;22905;50.340;10.776;2023-10-09T00:40:54;8.45;;;5.18;;
36995;SDS011;22905;50.340;10.776;2023-10-09T00:46:10;8.32;;;5.40;;
36995;SDS011;22905;50.340;10.776;2023-10-09T00:51:19;8.68;;;5.38;;
36995;SDS011;22905;50.340;10.776;2023-10-09T00:56:23;5.70;;;4.63;;
36995;SDS011;22905;50.340;10.776;2023-10-09T01:01:27;8.15;;;4.95;;
36995;SDS011;22905;50.340;10.776;2023-10-09T01:06:41;6.85;;;4.75;;
36995;SDS011;22905;50.340;10.776;2023-10-09T01:11:44;10.35;;;4.82;;
36995;SDS011;22905;50.340;10.776;2023-10-09T01:17:03;6.90;;;4.70;;
36995;SDS011;22905;50.340;10.776;2023-10-09T01:22:11;10.45;;;5.80;;
36995;SDS011;22905;50.340;10.776;2023-10-09T01:27:15;7.97;;;5.70;;
36995;SDS011;22905;50.340;10.776;2023-10-09T01:32:16;13.43;;;6.05;;
36995;SDS011;22905;50.340;10.776;2023-10-09T01:37:17;6.93;;;4.88;;
36995;SDS011;22905;50.340;10.776;2023-10-09T01:42:19;8.87;;;5.80;;
36995;SDS011;22905;50.340;10.776;2023-10-09T01:47:25;9.02;;;5.35;;
36995;SDS011;22905;50.340;10.776;2023-10-09T01:52:31;8.93;;;6.18;;
36995;SDS011;22905;50.340;10.776;2023-10-09T01:57:31;8.93;;;5.93;;
36995;SDS011;22905;50.340;10.776;2023-10-09T02:02:33;7.93;;;6.27;;
36995;SDS011;22905;50.340;10.776;2023-10-09T02:07:34;7.47;;;5.68;;
36995;SDS011;22905;50.340;10.776;2023-10-09T02:12:40;14.05;;;6.95;;
36995;SDS011;22905;50.340;10.776;2023-10-09T02:17:41;12.23;;;6.25;;
36995;SDS011;22905;50.340;10.776;2023-10-09T02:22:52;8.30;;;5.90;;
36995;SDS011;22905;50.340;10.776;2023-10-09T02:27:53;11.30;;;6.03;;
36995;SDS011;22905;50.340;10.776;2023-10-09T02:32:53;9.73;;;5.07;;
36995;SDS011;22905;50.340;10.776;2023-10-09T02:38:06;7.75;;;5.70;;
36995;SDS011;22905;50.340;10.776;2023-10-09T02:43:07;9.43;;;5.95;;
36995;SDS011;22905;50.340;10.776;2023-10-09T02:48:12;10.35;;;6.47;;
36995;SDS011;22905;50.340;10.776;2023-10-09T02:53:13;8.27;;;6.20;;
36995;SDS011;22905;50.340;10.776;2023-10-09T02:58:19;7.97;;;5.72;;
36995;SDS011;22905;50.340;10.776;2023-10-09T03:03:21;6.47;;;5.03;;
36995;SDS011;22905;50.340;10.776;2023-10-09T03:08:21;9.93;;;5.78;;
36995;SDS011;22905;50.340;10.776;2023-10-09T03:13:21;10.40;;;7.00;;
36995;SDS011;22905;50.340;10.776;2023-10-09T03:18:22;10.73;;;7.87;;
36995;SDS011;22905;50.340;10.776;2023-10-09T03:23:22;11.93;;;6.90;;
36995;SDS011;22905;50.340;10.776;2023-10-09T03:28:22;12.55;;;7.00;;
36995;SDS011;22905;50.340;10.776;2023-10-09T03:33:23;16.73;;;7.05;;
36995;SDS011;22905;50.340;10.776;2023-10-09T03:38:25;11.47;;;6.43;;
36995;SDS011;22905;50.340;10.776;2023-10-09T03:43:29;12.13;;;7.07;;
36995;SDS011;22905;50.340;10.776;2023-10-09T03:48:32;11.10;;;6.55;;
36995;SDS011;22905;50.340;10.776;2023-10-09T03:53:33;6.97;;;5.00;;
36995;SDS011;22905;50.340;10.776;2023-10-09T03:58:36;8.27;;;5.57;;
36995;SDS011;22905;50.340;10.776;2023-10-09T04:03:36;12.07;;;5.90;;
36995;SDS011;22905;50.340;10.776;2023-10-09T04:08:38;13.97;;;6.80;;
36995;SDS011;22905;50.340;10.776;2023-10-09T04:13:46;10.63;;;6.45;;
36995;SDS011;22905;50.340;10.776;2023-10-09T04:18:47;12.75;;;7.38;;
36995;SDS011;22905;50.340;10.776;2023-10-09T04:23:47;9.95;;;7.25;;
36995;SDS011;22905;50.340;10.776;2023-10-09T04:28:59;13.50;;;7.68;;
36995;SDS011;22905;50.340;10.776;2023-10-09T04:34:02;15.37;;;8.10;;
36995;SDS011;22905;50.340;10.776;2023-10-09T04:39:24;14.90;;;8.03;;
36995;SDS011;22905;50.340;10.776;2023-10-09T04:44:30;13.38;;;8.07;;
36995;SDS011;22905;50.340;10.776;2023-10-09T04:49:37;15.35;;;9.75;;
36995;SDS011;22905;50.340;10.776;2023-10-09T04:55:01;10.82;;;7.13;;
36995;SDS011;22905;50.340;10.776;2023-10-09T05:00:17;40.65;;;9.68;;
36995;SDS011;22905;50.340;10.776;2023-10-09T05:05:27;35.75;;;9.05;;
36995;SDS011;22905;50.340;10.776;2023-10-09T05:10:43;45.38;;;13.20;;
36995;SDS011;22905;50.340;10.776;2023-10-09T05:16:06;44.13;;;11.73;;
36995;SDS011;22905;50.340;10.776;2023-10-09T05:21:13;36.80;;;12.02;;
36995;SDS011;22905;50.340;10.776;2023-10-09T05:26:13;50.80;;;12.23;;
36995;SDS011;22905;50.340;10.776;2023-10-09T05:31:42;51.67;;;14.57;;
36995;SDS011;22905;50.340;10.776;2023-10-09T05:36:56;48.67;;;13.88;;
36995;SDS011;22905;50.340;10.776;2023-10-09T05:42:10;51.28;;;13.90;;
36995;SDS011;22905;50.340;10.776;2023-10-09T05:47:17;55.80;;;15.35;;
36995;SDS011;22905;50.340;10.776;2023-10-09T05:52:31;87.20;;;19.80;;
36995;SDS011;22905;50.340;10.776;2023-10-09T05:57:40;61.20;;;19.25;;
36995;SDS011;22905;50.340;10.776;2023-10-09T06:02:55;70.00;;;17.50;;
36995;SDS011;22905;50.340;10.776;2023-10-09T06:08:14;73.30;;;16.80;;
36995;SDS011;22905;50.340;10.776;2023-10-09T06:13:24;80.90;;;16.17;;
36995;SDS011;22905;50.340;10.776;2023-10-09T06:18:37;76.30;;;16.67;;
36995;SDS011;22905;50.340;10.776;2023-10-09T06:23:41;74.97;;;16.92;;
36995;SDS011;22905;50.340;10.776;2023-10-09T06:29:09;96.28;;;17.13;;
36995;SDS011;22905;50.340;10.776;2023-10-09T06:34:16;81.32;;;18.83;;
36995;SDS011;22905;50.340;10.776;2023-10-09T06:39:16;87.97;;;21.05;;
36995;SDS011;22905;50.340;10.776;2023-10-09T06:44:52;67.63;;;16.75;;
36995;SDS011;22905;50.340;10.776;2023-10-09T06:49:52;55.00;;;16.45;;
36995;SDS011;22905;50.340;10.776;2023-10-09T06:55:24;58.22;;;17.13;;
36995;SDS011;22905;50.340;10.776;2023-10-09T07:00:39;61.50;;;19.92;;
36995;SDS011;22905;50.340;10.776;2023-10-09T07:06:02;61.67;;;18.42;;
36995;SDS011;22905;50.340;10.776;2023-10-09T07:11:09;58.92;;;17.83;;
36995;SDS011;22905;50.340;10.776;2023-10-09T07:16:42;53.67;;;17.20;;
36995;SDS011;22905;50.340;10.776;2023-10-09T07:21:57;43.33;;;14.43;;
36995;SDS011;22905;50.340;10.776;2023-10-09T07:27:03;37.17;;;14.85;;
36995;SDS011;22905;50.340;10.776;2023-10-09T07:32:09;55.40;;;17.98;;
36995;SDS011;22905;50.340;10.776;2023-10-09T07:37:12;44.65;;;16.60;;
36995;SDS011;22905;50.340;10.776;2023-10-09T07:42:19;56.08;;;19.67;;
36995;SDS011;22905;50.340;10.776;2023-10-09T07:47:26;43.08;;;16.65;;
36995;SDS011;22905;50.340;10.776;2023-10-09T07:52:45;36.05;;;16.20;;
36995;SDS011;22905;50.340;10.776;2023-10-09T07:57:45;29.70;;;14.25;;
36995;SDS011;22905;50.340;10.776;2023-10-09T08:02:52;37.00;;;15.90;;
36995;SDS011;22905;50.340;10.776;2023-10-09T08:08:00;35.53;;;15.55;;
36995;SDS011;22905;50.340;10.776;2023-10-09T08:13:24;34.70;;;16.25;;
36995;SDS011;22905;50.340;10.776;2023-10-09T08:18:43;39.20;;;16.83;;
36995;SDS011;22905;50.340;10.776;2023-10-09T08:23:44;29.20;;;13.40;;
36995;SDS011;22905;50.340;10.776;2023-10-09T08:28:48;37.38;;;14.63;;
36995;SDS011;22905;50.340;10.776;2023-10-09T08:33:48;29.65;;;13.68;;
36995;SDS011;22905;50.340;10.776;2023-10-09T08:38:58;32.75;;;14.55;;
36995;SDS011;22905;50.340;10.776;2023-10-09T08:43:59;27.02;;;13.88;;
36995;SDS011;22905;50.340;10.776;2023-10-09T08:48:59;31.55;;;13.05;;
36995;SDS011;22905;50.340;10.776;2023-10-09T08:54:00;31.98;;;15.15;;
36995;SDS011;22905;50.340;10.776;2023-10-09T08:59:00;30.30;;;13.90;;
36995;SDS011;22905;50.340;10.776;2023-10-09T09:04:02;30.70;;;14.70;;
36995;SDS011;22905;50.340;10.776;2023-10-09T09:09:12;30.80;;;14.18;;
36995;SDS011;22905;50.340;10.776;2023-10-09T09:14:15;25.85;;;13.23;;
36995;SDS011;22905;50.340;10.776;2023-10-09T09:19:19;23.98;;;12.68;;
36995;SDS011;22905;50.340;10.776;2023-10-09T09:34:43;31.90;;;15.88;;
36995;SDS011;22905;50.340;10.776;2023-10-09T09:39:51;22.92;;;13.90;;
36995;SDS011;22905;50.340;10.776;2023-10-09T09:44:52;24.23;;;14.07;;
36995;SDS011;22905;50.340;10.776;2023-10-09T09:49:53;25.55;;;12.63;;
36995;SDS011;22905;50.340;10.776;2023-10-09T09:55:01;24.52;;;13.90;;
36995;SDS011;22905;50.340;10.776;2023-10-09T10:00:01;18.42;;;10.95;;
36995;SDS011;22905;50.340;10.776;2023-10-09T10:05:07;22.48;;;11.50;;
36995;SDS011;22905;50.340;10.776;2023-10-09T10:16:05;18.73;;;10.18;;
36995;SDS011;22905;50.340;10.776;2023-10-09T10:21:22;15.38;;;9.23;;
36995;SDS011;22905;50.340;10.776;2023-10-09T10:26:34;18.85;;;9.35;;
36995;SDS011;22905;50.340;10.776;2023-10-09T10:36:56;15.45;;;8.68;;
36995;SDS011;22905;50.340;10.776;2023-10-09T10:41:59;14.75;;;8.52;;
36995;SDS011;22905;50.340;10.776;2023-10-09T10:47:00;15.98;;;10.02;;
36995;SDS011;22905;50.340;10.776;2023-10-09T10:52:01;14.52;;;9.07;;
36995;SDS011;22905;50.340;10.776;2023-10-09T10:57:13;15.93;;;10.15;;
36995;SDS011;22905;50.340;10.776;2023-10-09T11:02:28;15.25;;;9.90;;
36995;SDS011;22905;50.340;10.776;2023-10-09T11:07:31;17.50;;;10.98;;
36995;SDS011;22905;50.340;10.776;2023-10-09T11:17:39;16.20;;;10.55;;
36995;SDS011;22905;50.340;10.776;2023-10-09T11:22:40;17.67;;;10.13;;
36995;SDS011;22905;50.340;10.776;2023-10-09T11:27:50;15.73;;;10.48;;
36995;SDS011;22905;50.340;10.776;2023-10-09T11:32:51;22.83;;;12.75;;
36995;SDS011;22905;50.340;10.776;2023-10-09T11:38:04;25.48;;;17.48;;
36995;SDS011;22905;50.340;10.776;2023-10-09T11:43:20;16.63;;;10.65;;
36995;SDS011;22905;50.340;10.776;2023-10-09T11:48:41;20.90;;;11.55;;
36995;SDS011;22905;50.340;10.776;2023-10-09T11:54:07;19.70;;;9.68;;
36995;SDS011;22905;50.340;10.776;2023-10-09T11:59:08;22.95;;;11.20;;
36995;SDS011;22905;50.340;10.776;2023-10-09T12:04:09;17.47;;;9.70;;
36995;SDS011;22905;50.340;10.776;2023-10-09T12:09:09;16.65;;;9.77;;
36995;SDS011;22905;50.340;10.776;2023-10-09T12:14:16;19.30;;;10.73;;
36995;SDS011;22905;50.340;10.776;2023-10-09T12:19:18;15.07;;;7.85;;
36995;SDS011;22905;50.340;10.776;2023-10-09T12:24:18;24.88;;;10.68;;
36995;SDS011;22905;50.340;10.776;2023-10-09T12:29:19;18.65;;;10.02;;
36995;SDS011;22905;50.340;10.776;2023-10-09T12:34:19;22.25;;;9.70;;
36995;SDS011;22905;50.340;10.776;2023-10-09T12:39:23;20.50;;;8.98;;
36995;SDS011;22905;50.340;10.776;2023-10-09T12:44:23;20.58;;;9.68;;
36995;SDS011;22905;50.340;10.776;2023-10-09T12:49:28;19.40;;;10.35;;
36995;SDS011;22905;50.340;10.776;2023-10-09T12:54:28;19.67;;;10.53;;
36995;SDS011;22905;50.340;10.776;2023-10-09T12:59:29;24.20;;;12.32;;
36995;SDS011;22905;50.340;10.776;2023-10-09T13:04:29;18.38;;;8.75;;
36995;SDS011;22905;50.340;10.776;2023-10-09T13:09:31;13.45;;;7.28;;
36995;SDS011;22905;50.340;10.776;2023-10-09T13:14:43;25.15;;;9.95;;
36995;SDS011;22905;50.340;10.776;2023-10-09T13:19:45;18.77;;;9.20;;
36995;SDS011;22905;50.340;10.776;2023-10-09T13:24:45;11.80;;;7.68;;
36995;SDS011;22905;50.340;10.776;2023-10-09T13:29:48;13.95;;;7.93;;
36995;SDS011;22905;50.340;10.776;2023-10-09T13:34:48;15.52;;;7.05;;
36995;SDS011;22905;50.340;10.776;2023-10-09T13:39:49;15.82;;;8.80;;
36995;SDS011;22905;50.340;10.776;2023-10-09T13:44:52;15.75;;;8.57;;
36995;SDS011;22905;50.340;10.776;2023-10-09T13:49:55;15.02;;;7.15;;
36995;SDS011;22905;50.340;10.776;2023-10-09T13:54:57;13.57;;;7.13;;
36995;SDS011;22905;50.340;10.776;2023-10-09T13:59:58;17.10;;;7.20;;
36995;SDS011;22905;50.340;10.776;2023-10-09T14:05:00;17.07;;;7.40;;
36995;SDS011;22905;50.340;10.776;2023-10-09T14:10:01;16.73;;;6.63;;
36995;SDS011;22905;50.340;10.776;2023-10-09T14:15:17;16.45;;;6.82;;
36995;SDS011;22905;50.340;10.776;2023-10-09T14:20:17;18.20;;;7.03;;
36995;SDS011;22905;50.340;10.776;2023-10-09T14:25:30;15.13;;;6.72;;
36995;SDS011;22905;50.340;10.776;2023-10-09T14:30:30;24.50;;;7.43;;
36995;SDS011;22905;50.340;10.776;2023-10-09T14:35:32;18.17;;;7.47;;
36995;SDS011;22905;50.340;10.776;2023-10-09T14:40:33;17.48;;;6.97;;
36995;SDS011;22905;50.340;10.776;2023-10-09T14:45:36;14.87;;;7.07;;
36995;SDS011;22905;50.340;10.776;2023-10-09T14:50:37;19.02;;;7.15;;
36995;SDS011;22905;50.340;10.776;2023-10-09T14:55:38;29.97;;;13.00;;
36995;SDS011;22905;50.340;10.776;2023-10-09T15:00:39;18.00;;;7.97;;
36995;SDS011;22905;50.340;10.776;2023-10-09T15:05:46;19.90;;;6.00;;
36995;SDS011;22905;50.340;10.776;2023-10-09T15:10:47;13.70;;;6.97;;
36995;SDS011;22905;50.340;10.776;2023-10-09T15:15:48;12.98;;;6.60;;
36995;SDS011;22905;50.340;10.776;2023-10-09T15:20:51;17.08;;;6.07;;
36995;SDS011;22905;50.340;10.776;2023-10-09T15:25:51;12.63;;;6.82;;
36995;SDS011;22905;50.340;10.776;2023-10-09T15:30:52;22.42;;;9.15;;
36995;SDS011;22905;50.340;10.776;2023-10-09T15:35:53;16.83;;;8.55;;
36995;SDS011;22905;50.340;10.776;2023-10-09T15:40:53;20.90;;;10.80;;
36995;SDS011;22905;50.340;10.776;2023-10-09T15:45:53;21.00;;;11.07;;
36995;SDS011;22905;50.340;10.776;2023-10-09T15:50:53;44.65;;;13.45;;
36995;SDS011;22905;50.340;10.776;2023-10-09T15:55:54;29.38;;;14.45;;
36995;SDS011;22905;50.340;10.776;2023-10-09T16:00:57;24.00;;;13.02;;
36995;SDS011;22905;50.340;10.776;2023-10-09T16:05:57;20.63;;;11.70;;
36995;SDS011;22905;50.340;10.776;2023-10-09T16:10:59;18.85;;;10.25;;
36995;SDS011;22905;50.340;10.776;2023-10-09T16:15:59;29.70;;;12.83;;
36995;SDS011;22905;50.340;10.776;2023-10-09T16:21:01;20.88;;;10.00;;
36995;SDS011;22905;50.340;10.776;2023-10-09T16:26:04;22.33;;;10.88;;
36995;SDS011;22905;50.340;10.776;2023-10-09T16:31:07;24.35;;;10.40;;
36995;SDS011;22905;50.340;10.776;2023-10-09T16:36:16;17.95;;;9.45;;
36995;SDS011;22905;50.340;10.776;2023-10-09T16:41:16;20.13;;;9.95;;
36995;SDS011;22905;50.340;10.776;2023-10-09T16:46:17;23.27;;;10.60;;
36995;SDS011;22905;50.340;10.776;2023-10-09T16:51:17;21.58;;;11.02;;
36995;SDS011;22905;50.340;10.776;2023-10-09T16:56:21;26.35;;;15.43;;
36995;SDS011;22905;50.340;10.776;2023-10-09T17:01:22;25.27;;;14.57;;
36995;SDS011;22905;50.340;10.776;2023-10-09T17:06:24;24.10;;;13.07;;
36995;SDS011;22905;50.340;10.776;2023-10-09T17:11:28;24.05;;;13.73;;
36995;SDS011;22905;50.340;10.776;2023-10-09T17:16:28;29.77;;;14.65;;
36995;SDS011;22905;50.340;10.776;2023-10-09T17:21:29;28.75;;;15.25;;
36995;SDS011;22905;50.340;10.776;2023-10-09T17:26:39;31.27;;;17.17;;
36995;SDS011;22905;50.340;10.776;2023-10-09T17:31:41;33.78;;;19.40;;
36995;SDS011;22905;50.340;10.776;2023-10-09T17:36:41;35.63;;;19.75;;
36995;SDS011;22905;50.340;10.776;2023-10-09T17:41:41;31.08;;;19.83;;
36995;SDS011;22905;50.340;10.776;2023-10-09T17:46:42;36.30;;;21.05;;
36995;SDS011;22905;50.340;10.776;2023-10-09T17:51:42;35.33;;;22.40;;
36995;SDS011;22905;50.340;10.776;2023-10-09T17:56:44;35.00;;;20.30;;
36995;SDS011;22905;50.340;10.776;2023-10-09T18:01:44;37.30;;;23.08;;
36995;SDS011;22905;50.340;10.776;2023-10-09T18:06:44;38.97;;;23.73;;
36995;SDS011;22905;50.340;10.776;2023-10-09T18:11:45;38.78;;;21.67;;
36995;SDS011;22905;50.340;10.776;2023-10-09T18:16:45;36.30;;;20.30;;
36995;SDS011;22905;50.340;10.776;2023-10-09T18:21:47;32.77;;;18.50;;
36995;SDS011;22905;50.340;10.776;2023-10-09T18:26:50;29.25;;;16.33;;
36995;SDS011;22905;50.340;10.776;2023-10-09T18:31:51;33.17;;;17.90;;
36995;SDS011;22905;50.340;10.776;2023-10-09T18:36:51;25.90;;;16.23;;
36995;SDS011;22905;50.340;10.776;2023-10-09T18:41:52;28.02;;;17.67;;
36995;SDS011;22905;50.340;10.776;2023-10-09T18:46:54;33.65;;;18.02;;
36995;SDS011;22905;50.340;10.776;2023-10-09T18:51:56;75.65;;;43.97;;
36995;SDS011;22905;50.340;10.776;2023-10-09T18:56:56;48.60;;;25.07;;
36995;SDS011;22905;50.340;10.776;2023-10-09T19:01:57;124.95;;;63.92;;
36995;SDS011;22905;50.340;10.776;2023-10-09T19:06:57;105.03;;;52.83;;
36995;SDS011;22905;50.340;10.776;2023-10-09T19:11:58;120.37;;;55.47;;
36995;SDS011;22905;50.340;10.776;2023-10-09T19:16:58;51.30;;;27.02;;
36995;SDS011;22905;50.340;10.776;2023-10-09T19:21:59;29.58;;;16.33;;
36995;SDS011;22905;50.340;10.776;2023-10-09T19:27:00;40.97;;;17.33;;
36995;SDS011;22905;50.340;10.776;2023-10-09T19:32:00;29.27;;;14.63;;
36995;SDS011;22905;50.340;10.776;2023-10-09T19:37:00;25.92;;;13.80;;
36995;SDS011;22905;50.340;10.776;2023-10-09T19:42:01;34.20;;;14.43;;
36995;SDS011;22905;50.340;10.776;2023-10-09T19:47:01;26.53;;;15.73;;
36995;SDS011;22905;50.340;10.776;2023-10-09T19:52:01;27.13;;;16.10;;
36995;SDS011;22905;50.340;10.776;2023-10-09T19:57:03;25.92;;;15.20;;
36995;SDS011;22905;50.340;10.776;2023-10-09T20:02:07;33.58;;;16.75;;
36995;SDS011;22905;50.340;10.776;2023-10-09T20:07:08;31.10;;;17.35;;
36995;SDS011;22905;50.340;10.776;2023-10-09T20:12:11;30.63;;;15.80;;
36995;SDS011;22905;50.340;10.776;2023-10-09T20:17:13;38.05;;;18.20;;
36995;SDS011;22905;50.340;10.776;2023-10-09T20:22:13;38.47;;;18.83;;
36995;SDS011;22905;50.340;10.776;2023-10-09T20:27:13;27.65;;;15.63;;
36995;SDS011;22905;50.340;10.776;2023-10-09T20:32:17;32.40;;;16.40;;
36995;SDS011;22905;50.340;10.776;2023-10-09T20:37:19;28.25;;;15.40;;
36995;SDS011;22905;50.340;10.776;2023-10-09T20:42:19;33.63;;;16.85;;
36995;SDS011;22905;50.340;10.776;2023-10-09T20:47:21;37.63;;;21.33;;
36995;SDS011;22905;50.340;10.776;2023-10-09T20:52:25;38.20;;;20.27;;
36995;SDS011;22905;50.340;10.776;2023-10-09T20:57:27;37.55;;;21.13;;
36995;SDS011;22905;50.340;10.776;2023-10-09T21:02:27;42.70;;;20.25;;
36995;SDS011;22905;50.340;10.776;2023-10-09T21:07:28;34.78;;;19.13;;
36995;SDS011;22905;50.340;10.776;2023-10-09T21:12:29;36.13;;;17.90;;
36995;SDS011;22905;50.340;10.776;2023-10-09T21:17:30;37.40;;;16.77;;
36995;SDS011;22905;50.340;10.776;2023-10-09T21:22:30;29.50;;;14.75;;
36995;SDS011;22905;50.340;10.776;2023-10-09T21:27:30;29.65;;;14.63;;
36995;SDS011;22905;50.340;10.776;2023-10-09T21:32:31;33.15;;;13.85;;
36995;SDS011;22905;50.340;10.776;2023-10-09T21:37:39;27.73;;;13.77;;
36995;SDS011;22905;50.340;10.776;2023-10-09T21:42:40;29.92;;;14.90;;
36995;SDS011;22905;50.340;10.776;2023-10-09T21:47:41;26.27;;;13.30;;
36995;SDS011;22905;50.340;10.776;2023-10-09T21:52:42;29.92;;;13.13;;
36995;SDS011;22905;50.340;10.776;2023-10-09T21:57:42;30.38;;;14.77;;
36995;SDS011;22905;50.340;10.776;2023-10-09T22:02:44;30.13;;;14.48;;
36995;SDS011;22905;50.340;10.776;2023-10-09T22:07:47;24.85;;;13.25;;
36995;SDS011;22905;50.340;10.776;2023-10-09T22:12:47;28.33;;;13.60;;
36995;SDS011;22905;50.340;10.776;2023-10-09T22:17:47;27.40;;;13.90;;
36995;SDS011;22905;50.340;10.776;2023-10-09T22:22:48;26.38;;;13.85;;
36995;SDS011;22905;50.340;10.776;2023-10-09T22:27:56;31.85;;;15.18;;
36995;SDS011;22905;50.340;10.776;2023-10-09T22:33:02;29.50;;;15.95;;
36995;SDS011;22905;50.340;10.776;2023-10-09T22:38:04;29.20;;;16.55;;
36995;SDS011;22905;50.340;10.776;2023-10-09T22:43:12;30.15;;;15.00;;
36995;SDS011;22905;50.340;10.776;2023-10-09T22:48:14;42.77;;;19.90;;
36995;SDS011;22905;50.340;10.776;2023-10-09T22:53:15;33.35;;;18.27;;
36995;SDS011;22905;50.340;10.776;2023-10-09T22:58:22;38.88;;;20.77;;
36995;SDS011;22905;50.340;10.776;2023-10-09T23:03:29;35.45;;;18.67;;
36995;SDS011;22905;50.340;10.776;2023-10-09T23:08:40;30.73;;;16.13;;
36995;SDS011;22905;50.340;10.776;2023-10-09T23:13:42;30.00;;;15.82;;
36995;SDS011;22905;50.340;10.776;2023-10-09T23:18:52;40.95;;;14.35;;
36995;SDS011;22905;50.340;10.776;2023-10-09T23:24:07;24.50;;;12.80;;
36995;SDS011;22905;50.340;10.776;2023-10-09T23:29:10;23.27;;;12.23;;
36995;SDS011;22905;50.340;10.776;2023-10-09T23:34:11;29.15;;;13.85;;
36995;SDS011;22905;50.340;10.776;2023-10-09T23:39:19;26.90;;;13.02;;
36995;SDS011;22905;50.340;10.776;2023-10-09T23:44:38;25.92;;;13.32;;
36995;SDS011;22905;50.340;10.776;2023-10-09T23:49:38;27.50;;;13.02;;
36995;SDS011;22905;50.340;10.776;2023-10-09T23:54:41;24.80;;;12.73;;
36995;SDS011;22905;50.340;10.776;2023-10-09T23:59:48;21.98;;;12.57;;
